Terminal Aerodrome Forecast
Issued by NWS

Home | Current Version | Previous Version | Text Only | Print | Product List | Glossary On
Versions: 1 2 3 4 5 6 7 8 9 10 11 12 13 14 15 16 17 18 19 20 21 22 23
000
FTUS41 KOKX 261745
TAFSWF
TAF
KSWF 261745Z 2618/2724 VRB05KT 4SM BR BKN015
     FM262200 22006KT 2SM -SHRA BR OVC015
      TEMPO 2623/2701 1SM +TSRA BR OVC009CB
     FM270100 35006KT 4SM -RA BR BKN025
     FM270900 36005KT 4SM -SNRA BR BKN025
     FM271300 33007KT P6SM SCT025 OVC100
     FM271700 33007KT P6SM VCSH BKN040
      AMD NOT SKED=

USA.gov is the U.S. government's official web portal to all federal, state and local government web resources and services.